createdAt,value
2023-05-15T00:00:37.910Z,100.00
2023-05-15T00:03:04.978Z,100.00
2023-05-15T00:05:31.891Z,100.00
2023-05-15T00:07:58.726Z,100.00
2023-05-15T00:10:25.581Z,100.00
2023-05-15T00:12:52.377Z,100.00
2023-05-15T00:15:19.201Z,100.00
2023-05-15T00:17:46.019Z,100.00
2023-05-15T00:20:13.170Z,100.00
2023-05-15T00:22:39.939Z,100.00
2023-05-15T00:25:07.428Z,100.00
2023-05-15T00:27:34.245Z,100.00
2023-05-15T00:30:01.151Z,100.00
2023-05-15T00:32:27.971Z,100.00
2023-05-15T00:34:54.779Z,100.00
2023-05-15T00:37:21.548Z,100.00
2023-05-15T00:39:48.864Z,100.00
2023-05-15T00:42:15.782Z,100.00
2023-05-15T00:44:42.620Z,100.00
2023-05-15T00:47:09.750Z,100.00
2023-05-15T00:49:37.481Z,100.00
2023-05-15T00:52:05.641Z,100.00
2023-05-15T00:54:32.450Z,100.00
2023-05-15T00:57:00.002Z,100.00
2023-05-15T00:59:30.640Z,100.00
2023-05-15T01:01:57.648Z,100.00
2023-05-15T01:04:24.478Z,100.00
2023-05-15T01:06:54.164Z,100.00
2023-05-15T01:09:22.077Z,100.00
2023-05-15T01:11:48.903Z,100.00
2023-05-15T01:14:15.787Z,100.00
2023-05-15T01:16:42.622Z,100.00
2023-05-15T01:19:09.570Z,100.00
2023-05-15T01:21:39.076Z,100.00
2023-05-15T01:24:35.162Z,100.00
2023-05-15T01:27:26.266Z,100.00
2023-05-15T01:30:01.471Z,100.00
2023-05-15T01:33:06.001Z,100.00
2023-05-15T01:35:45.862Z,100.00
2023-05-15T01:38:38.667Z,100.00
2023-05-15T01:41:21.291Z,100.00
2023-05-15T01:43:49.762Z,100.00
2023-05-15T01:46:17.615Z,100.00
2023-05-15T01:48:44.860Z,100.00
2023-05-15T01:51:11.683Z,100.00
2023-05-15T01:53:38.470Z,100.00
2023-05-15T01:56:07.197Z,100.00
2023-05-15T01:58:34.055Z,100.00
2023-05-15T02:01:00.917Z,100.00
2023-05-15T02:03:27.841Z,100.00
2023-05-15T02:05:56.717Z,100.00
2023-05-15T02:08:23.565Z,100.00
2023-05-15T02:10:50.386Z,100.00
2023-05-15T02:13:17.238Z,100.00
2023-05-15T02:15:44.076Z,100.00
2023-05-15T02:18:11.474Z,100.00
2023-05-15T02:20:38.270Z,100.00
2023-05-15T02:23:05.101Z,100.00
2023-05-15T02:26:02.592Z,100.00
2023-05-15T02:28:36.629Z,100.00
2023-05-15T02:31:07.653Z,100.00
2023-05-15T02:34:07.254Z,100.00
2023-05-15T02:36:34.083Z,100.00
2023-05-15T02:39:00.903Z,100.00
2023-05-15T02:41:27.783Z,100.00
2023-05-15T02:43:55.412Z,100.00
2023-05-15T02:46:22.281Z,100.00
2023-05-15T02:48:49.107Z,100.00
2023-05-15T02:51:15.904Z,100.00
2023-05-15T02:53:42.965Z,100.00
2023-05-15T02:56:10.104Z,100.00
2023-05-15T02:58:37.818Z,100.00
2023-05-15T03:01:04.850Z,100.00
2023-05-15T03:03:31.754Z,100.00
2023-05-15T03:06:00.914Z,100.00
2023-05-15T03:08:27.874Z,100.00
2023-05-15T03:10:54.869Z,100.00
2023-05-15T03:13:21.793Z,100.00
2023-05-15T03:15:48.642Z,100.00
2023-05-15T03:18:17.256Z,100.00
2023-05-15T03:20:45.677Z,100.00
2023-05-15T03:23:13.679Z,100.00
2023-05-15T03:25:40.652Z,100.00
2023-05-15T03:28:07.399Z,100.00
2023-05-15T03:30:34.197Z,100.00
2023-05-15T03:33:03.895Z,100.00
2023-05-15T03:35:32.439Z,100.00
2023-05-15T03:37:59.279Z,100.00
2023-05-15T03:40:26.075Z,100.00
2023-05-15T03:42:53.674Z,100.00
2023-05-15T03:45:21.438Z,100.00
2023-05-15T03:47:48.635Z,100.00
2023-05-15T03:50:15.857Z,100.00
2023-05-15T03:52:42.634Z,100.00
2023-05-15T03:55:09.613Z,100.00
2023-05-15T03:57:36.677Z,100.00
2023-05-15T04:00:09.762Z,100.00
2023-05-15T04:02:37.462Z,100.00
2023-05-15T04:05:05.489Z,100.00
2023-05-15T04:07:33.198Z,100.00
2023-05-15T04:10:01.676Z,100.00
2023-05-15T04:12:35.213Z,100.00
2023-05-15T04:15:21.848Z,100.00
2023-05-15T04:17:50.013Z,100.00
2023-05-15T04:20:18.357Z,100.00
2023-05-15T04:22:45.354Z,100.00
2023-05-15T04:25:12.612Z,100.00
2023-05-15T04:27:39.542Z,100.00
2023-05-15T04:30:09.773Z,100.00
2023-05-15T04:32:37.572Z,100.00
2023-05-15T04:35:12.367Z,100.00
2023-05-15T04:37:39.917Z,100.00
2023-05-15T04:40:08.309Z,100.00
2023-05-15T04:42:37.674Z,100.00
2023-05-15T04:45:06.608Z,100.00
2023-05-15T04:47:33.493Z,100.00
2023-05-15T04:50:00.351Z,100.00
2023-05-15T04:52:27.258Z,100.00
2023-05-15T04:54:56.038Z,100.00
2023-05-15T04:57:23.192Z,100.00
2023-05-15T04:59:50.144Z,100.00
2023-05-15T05:02:19.978Z,100.00
2023-05-15T05:04:46.900Z,100.00
2023-05-15T05:07:16.003Z,100.00
2023-05-15T05:09:42.842Z,100.00
2023-05-15T05:12:09.754Z,100.00
2023-05-15T05:14:36.862Z,100.00
2023-05-15T05:17:03.863Z,100.00
2023-05-15T05:19:31.028Z,100.00
2023-05-15T05:22:04.760Z,100.00
2023-05-15T05:24:32.353Z,100.00
2023-05-15T05:26:59.322Z,100.00
2023-05-15T05:29:26.427Z,100.00
2023-05-15T05:31:53.618Z,100.00
2023-05-15T05:34:20.745Z,100.00
2023-05-15T05:36:47.634Z,100.00
2023-05-15T05:39:16.294Z,100.00
2023-05-15T05:41:43.951Z,100.00
2023-05-15T05:44:11.075Z,100.00
2023-05-15T05:46:38.006Z,100.00
2023-05-15T05:49:04.944Z,100.00
2023-05-15T05:51:32.050Z,100.00
2023-05-15T05:53:59.009Z,100.00
2023-05-15T05:56:26.774Z,100.00
2023-05-15T05:58:53.808Z,100.00
2023-05-15T06:01:21.206Z,100.00
2023-05-15T06:03:48.287Z,100.00
2023-05-15T06:06:15.201Z,100.00
2023-05-15T06:08:42.056Z,100.00
2023-05-15T06:11:08.960Z,100.00
2023-05-15T06:13:35.983Z,100.00
2023-05-15T06:16:02.892Z,100.00
2023-05-15T06:18:29.838Z,100.00
2023-05-15T06:20:58.938Z,100.00
2023-05-15T06:23:26.828Z,100.00
2023-05-15T06:25:53.717Z,100.00
2023-05-15T06:28:20.648Z,100.00
2023-05-15T06:30:47.516Z,100.00
2023-05-15T06:33:18.621Z,100.00
2023-05-15T06:35:45.651Z,100.00
2023-05-15T06:38:12.561Z,100.00
2023-05-15T06:40:39.366Z,100.00
2023-05-15T06:43:06.206Z,100.00
2023-05-15T06:45:33.012Z,100.00
2023-05-15T06:48:01.894Z,100.00
2023-05-15T06:50:29.043Z,100.00
2023-05-15T06:52:56.046Z,100.00
2023-05-15T06:55:23.165Z,100.00
2023-05-15T06:57:50.216Z,100.00
2023-05-15T07:00:17.707Z,100.00
2023-05-15T07:02:44.587Z,100.00
2023-05-15T07:05:11.774Z,100.00
2023-05-15T07:07:38.664Z,100.00
2023-05-15T07:10:06.224Z,100.00
2023-05-15T07:12:33.335Z,100.00
2023-05-15T07:15:00.245Z,100.00
2023-05-15T07:17:27.173Z,100.00
2023-05-15T07:19:54.112Z,100.00
2023-05-15T07:22:21.011Z,100.00
2023-05-15T07:24:47.926Z,100.00
2023-05-15T07:27:14.772Z,100.00
2023-05-15T07:29:41.600Z,100.00
2023-05-15T07:32:08.502Z,97.57
2023-05-15T07:34:35.505Z,94.43
2023-05-15T07:37:02.772Z,94.33
2023-05-15T07:39:29.818Z,95.20
2023-05-15T07:41:56.692Z,96.02
2023-05-15T07:44:23.724Z,95.83
2023-05-15T07:46:50.675Z,96.19
2023-05-15T07:49:17.566Z,96.71
2023-05-15T07:51:44.439Z,97.54
2023-05-15T07:54:11.291Z,97.03
2023-05-15T07:56:38.960Z,96.27
2023-05-15T07:59:05.851Z,96.99
2023-05-15T08:01:32.936Z,96.06
2023-05-15T08:04:00.512Z,95.67
2023-05-15T08:06:27.438Z,96.49
2023-05-15T08:08:54.394Z,96.94
2023-05-15T08:11:22.139Z,96.45
2023-05-15T08:13:49.093Z,95.49
2023-05-15T08:16:16.137Z,95.89
2023-05-15T08:18:43.172Z,95.98
2023-05-15T08:21:10.162Z,97.58
2023-05-15T08:23:37.118Z,96.72
2023-05-15T08:26:03.995Z,95.87
2023-05-15T08:28:30.792Z,95.12
2023-05-15T08:30:57.621Z,94.82
2023-05-15T08:33:24.406Z,94.77
2023-05-15T08:35:51.996Z,94.93
2023-05-15T08:38:18.833Z,95.13
2023-05-15T08:40:46.916Z,95.03
2023-05-15T08:43:15.231Z,95.65
2023-05-15T08:45:42.250Z,95.53
2023-05-15T08:48:11.976Z,95.90
2023-05-15T08:50:39.600Z,96.26
2023-05-15T08:53:06.485Z,97.00
2023-05-15T08:55:33.371Z,97.06
2023-05-15T08:58:00.514Z,96.59
2023-05-15T09:00:27.436Z,95.91
2023-05-15T09:02:54.645Z,95.53
2023-05-15T09:05:21.692Z,92.91
2023-05-15T09:07:48.581Z,91.82
2023-05-15T09:10:15.500Z,92.45
2023-05-15T09:12:47.084Z,90.31
2023-05-15T09:15:17.513Z,90.13
2023-05-15T09:17:44.965Z,89.78
2023-05-15T09:20:37.041Z,89.37
2023-05-15T09:23:05.753Z,87.52
2023-05-15T09:25:39.679Z,87.36
2023-05-15T09:28:07.215Z,87.61
2023-05-15T09:30:34.899Z,86.06
2023-05-15T09:33:03.827Z,86.79
2023-05-15T09:35:35.728Z,87.03
2023-05-15T09:38:04.103Z,86.75
2023-05-15T09:40:31.865Z,87.16
2023-05-15T09:42:59.392Z,89.83
2023-05-15T09:45:27.480Z,89.14
2023-05-15T09:47:54.687Z,88.72
2023-05-15T09:50:36.582Z,88.41
2023-05-15T09:53:03.536Z,88.91
2023-05-15T09:55:36.981Z,87.65
2023-05-15T09:58:06.800Z,88.12
2023-05-15T10:00:34.715Z,88.70
2023-05-15T10:03:05.306Z,88.63
2023-05-15T10:05:43.124Z,88.01
2023-05-15T10:08:11.009Z,87.49
2023-05-15T10:10:37.922Z,87.26
2023-05-15T10:13:07.394Z,87.17
2023-05-15T10:15:34.250Z,85.72
2023-05-15T10:18:01.236Z,84.89
2023-05-15T10:20:28.305Z,87.01
2023-05-15T10:22:56.373Z,85.54
2023-05-15T10:25:35.062Z,85.24
2023-05-15T10:28:02.004Z,86.94
2023-05-15T10:30:29.247Z,89.14
2023-05-15T10:32:56.388Z,91.79
2023-05-15T10:35:23.532Z,93.48
2023-05-15T10:37:50.446Z,94.97
2023-05-15T10:40:17.699Z,96.24
2023-05-15T10:42:45.921Z,96.84
2023-05-15T10:45:13.184Z,96.30
2023-05-15T10:47:40.900Z,96.88
2023-05-15T10:50:08.237Z,98.01
2023-05-15T10:52:36.568Z,96.37
2023-05-15T10:55:13.613Z,96.28
2023-05-15T10:57:40.526Z,95.97
2023-05-15T11:00:31.636Z,95.06
2023-05-15T11:02:59.351Z,95.20
2023-05-15T11:05:26.459Z,95.31
2023-05-15T11:08:15.077Z,95.88
2023-05-15T11:10:42.017Z,96.10
2023-05-15T11:13:08.974Z,96.60
2023-05-15T11:15:48.537Z,95.92
2023-05-15T11:18:15.731Z,96.01
2023-05-15T11:20:52.192Z,96.60
2023-05-15T11:23:22.570Z,96.96
2023-05-15T11:25:59.005Z,98.73
2023-05-15T11:28:26.229Z,100.00
2023-05-15T11:30:53.840Z,99.78
2023-05-15T11:33:21.110Z,99.11
2023-05-15T11:35:48.042Z,100.00
2023-05-15T11:38:24.999Z,100.00
2023-05-15T11:40:58.756Z,100.00
2023-05-15T11:43:28.815Z,100.00
2023-05-15T11:46:06.149Z,100.00
2023-05-15T11:48:35.804Z,100.00
2023-05-15T11:51:02.661Z,100.00
2023-05-15T11:53:32.978Z,100.00
2023-05-15T11:55:59.753Z,100.00
2023-05-15T11:58:26.586Z,100.00
2023-05-15T12:00:53.876Z,100.00
2023-05-15T12:03:30.030Z,100.00
2023-05-15T12:06:00.182Z,100.00
2023-05-15T12:08:32.500Z,100.00
2023-05-15T12:10:59.874Z,100.00
2023-05-15T12:13:26.569Z,100.00
2023-05-15T12:15:55.973Z,100.00
2023-05-15T12:18:23.200Z,100.00
2023-05-15T12:20:51.859Z,100.00
2023-05-15T12:23:20.393Z,100.00
2023-05-15T12:25:47.142Z,100.00
2023-05-15T12:28:14.049Z,100.00
2023-05-15T12:30:40.935Z,100.00
2023-05-15T12:33:08.021Z,100.00
2023-05-15T12:36:01.172Z,100.00
2023-05-15T12:38:28.963Z,100.00
2023-05-15T12:40:57.052Z,100.00
2023-05-15T12:43:24.894Z,100.00
2023-05-15T12:45:55.362Z,100.00
2023-05-15T12:48:22.229Z,100.00
2023-05-15T12:50:49.987Z,100.00
2023-05-15T12:53:16.814Z,100.00
2023-05-15T12:55:47.003Z,100.00
2023-05-15T12:58:15.319Z,100.00
2023-05-15T13:00:42.902Z,100.00
2023-05-15T13:03:11.251Z,100.00
2023-05-15T13:05:38.663Z,100.00
2023-05-15T13:08:06.429Z,100.00
2023-05-15T13:10:34.416Z,100.00
2023-05-15T13:13:01.449Z,100.00
2023-05-15T13:15:36.371Z,100.00
2023-05-15T13:18:05.009Z,100.00
2023-05-15T13:20:38.755Z,100.00
2023-05-15T13:23:05.639Z,100.00
2023-05-15T13:25:32.520Z,100.00
2023-05-15T13:28:01.440Z,100.00
2023-05-15T13:30:28.515Z,100.00
2023-05-15T13:32:55.922Z,100.00
2023-05-15T13:35:23.039Z,100.00
2023-05-15T13:37:50.056Z,100.00
2023-05-15T13:40:16.823Z,100.00
2023-05-15T13:42:43.665Z,100.00
2023-05-15T13:45:11.987Z,100.00
2023-05-15T13:47:39.595Z,100.00
2023-05-15T13:50:10.293Z,100.00
2023-05-15T13:52:37.452Z,100.00
2023-05-15T13:55:05.114Z,100.00
2023-05-15T13:57:32.270Z,100.00
2023-05-15T13:59:59.198Z,100.00
2023-05-15T14:02:29.355Z,100.00
2023-05-15T14:04:56.148Z,100.00
2023-05-15T14:07:23.183Z,100.00
2023-05-15T14:09:50.754Z,100.00
2023-05-15T14:12:17.695Z,100.00
2023-05-15T14:14:47.588Z,100.00
2023-05-15T14:17:15.147Z,100.00
2023-05-15T14:19:41.912Z,100.00
2023-05-15T14:22:08.932Z,100.00
2023-05-15T14:24:35.708Z,100.00
2023-05-15T14:27:02.491Z,100.00
2023-05-15T14:29:29.634Z,100.00
2023-05-15T14:31:56.566Z,100.00
2023-05-15T14:34:23.583Z,100.00
2023-05-15T14:36:50.576Z,100.00
2023-05-15T14:39:17.689Z,100.00
2023-05-15T14:41:44.676Z,100.00
2023-05-15T14:44:11.509Z,100.00
2023-05-15T14:46:38.477Z,100.00
2023-05-15T14:49:05.624Z,100.00
2023-05-15T14:51:32.507Z,100.00
2023-05-15T14:53:59.462Z,100.00
2023-05-15T14:56:26.331Z,100.00
2023-05-15T14:58:55.781Z,100.00
2023-05-15T15:01:22.685Z,100.00
2023-05-15T15:03:49.702Z,100.00
2023-05-15T15:06:16.571Z,100.00
2023-05-15T15:08:43.332Z,100.00
2023-05-15T15:11:10.508Z,100.00
2023-05-15T15:13:37.585Z,100.00
2023-05-15T15:16:04.981Z,100.00
2023-05-15T15:18:32.030Z,100.00
2023-05-15T15:20:58.872Z,100.00
2023-05-15T15:23:25.700Z,100.00
2023-05-15T15:25:52.643Z,100.00
2023-05-15T15:28:19.443Z,100.00
2023-05-15T15:30:46.505Z,100.00
2023-05-15T15:33:13.278Z,100.00
2023-05-15T15:35:40.398Z,100.00
2023-05-15T15:38:07.298Z,100.00
2023-05-15T15:40:35.165Z,100.00
2023-05-15T15:43:01.994Z,100.00
2023-05-15T15:45:28.816Z,100.00
2023-05-15T15:47:55.670Z,100.00
2023-05-15T15:50:22.490Z,100.00
2023-05-15T15:52:49.252Z,100.00
2023-05-15T15:55:16.062Z,100.00
2023-05-15T15:57:43.049Z,100.00
2023-05-15T16:00:10.371Z,100.00
2023-05-15T16:02:37.229Z,100.00
2023-05-15T16:05:04.201Z,100.00
2023-05-15T16:07:30.963Z,100.00
2023-05-15T16:10:10.559Z,100.00
2023-05-15T16:12:39.210Z,100.00
2023-05-15T16:15:20.997Z,100.00
2023-05-15T16:17:50.538Z,100.00
2023-05-15T16:20:17.829Z,100.00
2023-05-15T16:22:44.599Z,100.00
2023-05-15T16:25:11.426Z,100.00
2023-05-15T16:27:38.206Z,100.00
2023-05-15T16:30:05.410Z,100.00
2023-05-15T16:32:34.113Z,100.00
2023-05-15T16:35:01.115Z,100.00
2023-05-15T16:37:27.915Z,100.00
2023-05-15T16:39:54.703Z,100.00
2023-05-15T16:42:21.471Z,100.00
2023-05-15T16:44:48.192Z,100.00
2023-05-15T16:47:14.993Z,100.00
2023-05-15T16:49:44.270Z,100.00
2023-05-15T16:52:11.728Z,100.00
2023-05-15T16:54:41.539Z,100.00
2023-05-15T16:57:08.297Z,100.00
2023-05-15T16:59:35.066Z,100.00
2023-05-15T17:02:01.951Z,100.00
2023-05-15T17:04:31.469Z,100.00
2023-05-15T17:06:59.593Z,100.00
2023-05-15T17:09:26.439Z,100.00
2023-05-15T17:11:53.232Z,100.00
2023-05-15T17:14:20.201Z,100.00
2023-05-15T17:16:47.131Z,100.00
2023-05-15T17:19:14.275Z,100.00
2023-05-15T17:21:41.104Z,100.00
2023-05-15T17:24:07.927Z,100.00
2023-05-15T17:26:34.707Z,100.00
2023-05-15T17:29:01.533Z,100.00
2023-05-15T17:31:29.556Z,100.00
2023-05-15T17:33:56.619Z,100.00
2023-05-15T17:36:23.416Z,100.00
2023-05-15T17:38:50.320Z,100.00
2023-05-15T17:41:17.123Z,100.00
2023-05-15T17:43:43.975Z,100.00
2023-05-15T17:46:10.802Z,100.00
2023-05-15T17:48:37.541Z,100.00
2023-05-15T17:51:04.327Z,100.00
2023-05-15T17:53:31.147Z,100.00
2023-05-15T17:55:57.995Z,100.00
2023-05-15T17:58:24.854Z,100.00
2023-05-15T18:00:52.142Z,100.00
2023-05-15T18:03:18.993Z,100.00
2023-05-15T18:05:47.104Z,100.00
2023-05-15T18:08:14.413Z,100.00
2023-05-15T18:10:41.154Z,100.00
2023-05-15T18:13:08.083Z,100.00
2023-05-15T18:15:37.637Z,100.00
2023-05-15T18:18:04.820Z,100.00
2023-05-15T18:20:31.693Z,100.00
2023-05-15T18:22:58.423Z,100.00
2023-05-15T18:25:25.370Z,100.00
2023-05-15T18:27:52.464Z,100.00
2023-05-15T18:30:19.389Z,100.00
2023-05-15T18:32:46.186Z,100.00
2023-05-15T18:35:12.951Z,100.00
2023-05-15T18:37:39.838Z,100.00
2023-05-15T18:40:07.194Z,100.00
2023-05-15T18:42:34.002Z,100.00
2023-05-15T18:45:00.830Z,100.00
2023-05-15T18:47:27.735Z,100.00
2023-05-15T18:49:54.646Z,100.00
2023-05-15T18:52:21.533Z,100.00
2023-05-15T18:54:48.410Z,100.00
2023-05-15T18:57:15.359Z,100.00
2023-05-15T18:59:42.252Z,100.00
2023-05-15T19:02:11.307Z,100.00
2023-05-15T19:04:38.256Z,100.00
2023-05-15T19:07:05.666Z,100.00
2023-05-15T19:09:32.782Z,100.00
2023-05-15T19:12:00.261Z,100.00
2023-05-15T19:14:27.087Z,100.00
2023-05-15T19:16:54.095Z,100.00
2023-05-15T19:19:21.105Z,100.00
2023-05-15T19:21:47.978Z,100.00
2023-05-15T19:24:14.823Z,100.00
2023-05-15T19:26:41.852Z,100.00
2023-05-15T19:29:08.651Z,100.00
2023-05-15T19:31:36.612Z,100.00
2023-05-15T19:34:03.439Z,100.00
2023-05-15T19:36:30.190Z,100.00
2023-05-15T19:38:57.241Z,100.00
2023-05-15T19:41:24.279Z,100.00
2023-05-15T19:43:51.266Z,100.00
2023-05-15T19:46:18.624Z,100.00
2023-05-15T19:48:45.702Z,100.00
2023-05-15T19:51:12.542Z,100.00
2023-05-15T19:53:39.341Z,100.00
2023-05-15T19:56:06.460Z,100.00
2023-05-15T19:58:33.256Z,100.00
2023-05-15T20:01:00.035Z,100.00
2023-05-15T20:03:33.130Z,100.00
2023-05-15T20:06:03.435Z,100.00
2023-05-15T20:08:30.345Z,100.00
2023-05-15T20:10:57.518Z,100.00
2023-05-15T20:13:24.425Z,100.00
2023-05-15T20:15:57.161Z,100.00
2023-05-15T20:18:25.148Z,100.00
2023-05-15T20:20:53.078Z,100.00
2023-05-15T20:23:20.466Z,100.00
2023-05-15T20:25:47.688Z,100.00
2023-05-15T20:28:14.479Z,100.00
2023-05-15T20:30:41.701Z,100.00
2023-05-15T20:33:08.617Z,100.00
2023-05-15T20:35:35.588Z,100.00
2023-05-15T20:38:04.308Z,100.00
2023-05-15T20:40:31.154Z,100.00
2023-05-15T20:42:58.000Z,100.00
2023-05-15T20:45:25.127Z,100.00
2023-05-15T20:47:51.905Z,100.00
2023-05-15T20:50:18.713Z,100.00
2023-05-15T20:52:46.144Z,100.00
2023-05-15T20:55:16.409Z,100.00
2023-05-15T20:57:44.299Z,100.00
2023-05-15T21:00:11.902Z,100.00
2023-05-15T21:02:38.843Z,100.00
2023-05-15T21:05:06.171Z,100.00
2023-05-15T21:07:32.951Z,100.00
2023-05-15T21:09:59.690Z,100.00
2023-05-15T21:12:26.454Z,100.00
2023-05-15T21:14:53.224Z,100.00
2023-05-15T21:17:19.986Z,100.00
2023-05-15T21:19:48.476Z,100.00
2023-05-15T21:22:15.917Z,100.00
2023-05-15T21:24:42.770Z,100.00
2023-05-15T21:27:09.528Z,100.00
2023-05-15T21:29:36.404Z,100.00
2023-05-15T21:32:03.547Z,100.00
2023-05-15T21:34:30.411Z,100.00
2023-05-15T21:36:57.158Z,100.00
2023-05-15T21:39:23.871Z,100.00
2023-05-15T21:41:51.442Z,100.00
2023-05-15T21:44:18.213Z,100.00
2023-05-15T21:46:45.069Z,100.00
2023-05-15T21:49:12.373Z,100.00
2023-05-15T21:51:39.101Z,100.00
2023-05-15T21:54:06.017Z,100.00
2023-05-15T21:56:32.920Z,100.00
2023-05-15T21:58:59.697Z,100.00
2023-05-15T22:01:26.445Z,100.00
2023-05-15T22:03:53.317Z,100.00
2023-05-15T22:06:20.095Z,100.00
2023-05-15T22:08:46.791Z,100.00
2023-05-15T22:11:13.590Z,100.00
2023-05-15T22:13:40.421Z,100.00
2023-05-15T22:16:07.229Z,100.00
2023-05-15T22:18:35.073Z,100.00
2023-05-15T22:21:03.216Z,100.00
2023-05-15T22:23:29.947Z,100.00
2023-05-15T22:25:56.673Z,100.00
2023-05-15T22:28:23.436Z,100.00
2023-05-15T22:30:50.181Z,100.00
2023-05-15T22:33:16.916Z,100.00
2023-05-15T22:35:44.072Z,100.00
2023-05-15T22:38:10.799Z,100.00
2023-05-15T22:40:37.511Z,100.00
2023-05-15T22:43:04.271Z,100.00
2023-05-15T22:45:31.267Z,100.00
2023-05-15T22:47:58.208Z,100.00
2023-05-15T22:50:25.235Z,100.00
2023-05-15T22:52:52.121Z,100.00
2023-05-15T22:55:18.924Z,100.00
2023-05-15T22:57:45.797Z,100.00
2023-05-15T23:00:13.750Z,100.00
2023-05-15T23:02:42.796Z,100.00
2023-05-15T23:05:11.507Z,100.00
2023-05-15T23:07:38.223Z,100.00
2023-05-15T23:10:05.569Z,100.00
2023-05-15T23:12:32.335Z,100.00
2023-05-15T23:14:59.079Z,100.00
2023-05-15T23:17:26.625Z,100.00
2023-05-15T23:19:53.653Z,100.00
2023-05-15T23:22:20.408Z,100.00
2023-05-15T23:24:47.182Z,100.00
2023-05-15T23:27:13.881Z,100.00
2023-05-15T23:29:40.571Z,100.00
2023-05-15T23:32:07.732Z,100.00
2023-05-15T23:34:34.434Z,100.00
2023-05-15T23:37:01.148Z,100.00
2023-05-15T23:39:27.900Z,100.00
2023-05-15T23:41:54.634Z,100.00
2023-05-15T23:44:21.416Z,100.00
2023-05-15T23:46:48.377Z,100.00
2023-05-15T23:49:15.307Z,100.00
2023-05-15T23:51:43.701Z,100.00
2023-05-15T23:54:10.968Z,100.00
2023-05-15T23:56:37.748Z,100.00
2023-05-15T23:59:04.472Z,100.00
